MUCU

Antonio Maceo Airport

Airport
ICAO code
MUCU
IATA Code
SCU
Summary
ICAO Region
CARSAM
ICAO Territory
Location

Santiago de Cuba, Santiago de Cuba

Serving
Santiago de Cuba
Elevation
249 ft
Coordinates
19° 58' 12" N , 75° 50' 8" W
KCC
Airport BS
Bird Strike
Metar
Observation
MUCU 080850Z 01008KT 9000 FEW020 22/17 Q1016
Station
Santiago De Cuba, Oriente
Date/Time
2022-12-08 08:50:00
Wind direction
10°
Wind speed
08 kts
Lowest cloud amount
few clouds
Temperature
22°C
Dew point
17°C
Humidity
73%
QNH
1016 hPa
Weather condition
n/a

International airport serving Santiago de Cuba, Cuba.

Climatology

Tropical Savanna climate (Köppen climate classification Aw) - monthly mean temperature above 18°C in every month of the year and a pronounced dry season.

The dry season is in Feb/Mar. The Hurricane season lasts from May to December with the rainy season extending into January.

Runways

Designator Length Width Surface Rops
18/36 1296 45 ASP No/No
9/27 4000 45 ASP No/No

Airport map

Aerial View

SKYbrary Partners:

Safety knowledge contributed by: